Ja pieteikums aizpildīts kļūdaini, aizpildiet jaunu — tiks ņemts vērā pēdējais iesniegtais.

ID PietID Vārds Uzvārds Komanda Grupa Reģistrēts
XCO1-148Patriks PaulsRullisVelooutletsVīrieši M19-34 (1992.-2007.dz.g.)2026-05-01 06:37:38
XCO1-147SergejsKacanovsMTB GrobinaVīrieši Master 3 (1977.-1981.dz.g.)2026-04-30 20:49:54
XCO1-146PovilasTrimailovasKaunas Cycling TeamVīrieši M19-34 (1992.-2007.dz.g.)2026-04-30 20:38:07
XCO1-145EvijaZiediņaSievietes Elite/U23/M19-34 (<=2007.dz.g.)2026-04-30 20:02:58
XCO1-144GatisBormanisVelo Express Scott RCVīrieši Master 2 (1982.-1986.dz.g.)2026-04-30 19:57:33
XCO1-143EmīlsLācisRRSZēni U14 (2012.-2013.dz.g.)2026-04-30 19:38:30
XCO1-142ArvisNeilandsVelo SaldusVīrieši Master 4 (1972.-1976.dz.g.)2026-04-30 19:26:13
XCO1-141RičardsZaļeskisNN Sporta klubs/RRSZēni U12 (2014.-2015.dz.g.)2026-04-30 18:52:03
XCO1-140RenārsZaļeskisNN Sporta klubs/RRSZēni U12 (2014.-2015.dz.g.)2026-04-30 18:51:10
XCO1-139KristīneDucenaSK PriekuļiSievietes Master 1+ (<=1992.dz.g.)2026-04-30 18:43:16
XCO1-138KārlisDucensSK PriekuļiVīrieši Master 2 (1982.-1986.dz.g.)2026-04-30 18:43:16
XCO1-137DenisaDruka-JaunzemeSievietes Master 1+ (<=1992.dz.g.)2026-04-30 18:41:59
XCO1-136AndrejsZiemaVīrieši Master 5+ (<=1971.dz.g.)2026-04-30 18:37:39
XCO1-135LV43HABA0551063053705BEINAROVIČSRRS AlfaZēni U14 (2012.-2013.dz.g.)2026-04-30 18:15:15
XCO1-134AhtiHinnovEstonia | Keila XCOVīrieši Master 1 (1987.-1991.dz.g.)2026-04-30 17:47:38
XCO1-133PēterisZaicevsVīrieši M19-34 (1992.-2007.dz.g.)2026-04-30 17:41:41
XCO1-132IgorsJuršēvičsSK PriekuļiVīrieši Master 5+ (<=1971.dz.g.)2026-04-30 17:30:51
XCO1-131InnaJuršēvičaSK PriekuļiSievietes Hobija klase2026-04-30 17:30:51
XCO1-130RūdolfsGaidlazdaRRSZēni U14 (2012.-2013.dz.g.)2026-04-30 15:59:09
XCO1-129NaurisZviedrisDako ZiemeļvidzemeVīrieši Elite* (<=2007.dz.g.)2026-04-30 15:52:47
XCO1-128AndrisRomanovskisVelo komanda OgreVīrieši M19-34 (1992.-2007.dz.g.)2026-04-30 15:35:06
XCO1-127MārtiņšRomanovskisVelo komanda OgreVīrieši M19-34 (1992.-2007.dz.g.)2026-04-30 15:20:17
XCO1-126AndrisRomanovskisVelo komanda OgreVīrieši Hobija klase2026-04-30 15:20:17
XCO1-125GuntarsArklonsVelo komanda OgreVīrieši Master 2 (1982.-1986.dz.g.)2026-04-30 15:20:17
XCO1-124EdvardsŠpaksVelo komanda OgreZēni U18 (2008.-2009.dz.g.)2026-04-30 15:20:17
XCO1-123JēkabsBukšsVelo komanda OgreZēni U18 (2008.-2009.dz.g.)2026-04-30 15:20:17
XCO1-122Artūrs JorensNorvaišsĶekavas Novada Sporta skolaZēni U16 (2010.-2011.dz.g.)2026-04-30 14:30:45
XCO1-121MatīssBuncisZēni U14 (2012.-2013.dz.g.)2026-04-30 14:25:40
XCO1-120GintsSluckisMAPEI VeloVīrieši Master 2 (1982.-1986.dz.g.)2026-04-30 09:11:36
XCO1-119KārlisKrūmiņšVeloexpress Scott RCVīrieši M19-34 (1992.-2007.dz.g.)2026-04-30 09:10:49
XCO1-118MatīssKaļveršsSalaspils / ZīriņiVīrieši M19-34 (1992.-2007.dz.g.)2026-04-30 08:03:23
XCO1-117RodrigoFecersDobeles sporta skolaZēni U14 (2012.-2013.dz.g.)2026-04-30 06:42:03
XCO1-116GatisLubertsVeloLifestyle/SmiltenesBJSSVīrieši Hobija klase2026-04-30 04:16:58
XCO1-115SamantaLuberteVeloLifestyle/SmiltenesBJSSMeitenes U14 (2012.-2013.dz.g.)2026-04-30 04:16:58
XCO1-114OskarsŠtrauhmanisĶekavas NSSZēni U16 (2010.-2011.dz.g.)2026-04-29 21:20:29
XCO1-113VilnisĶimenisVīrieši Master 3 (1977.-1981.dz.g.)2026-04-29 20:08:05
XCO1-112KarolainaDruka-JaunzemeRRSMeitenes U12 (2014.-2015.dz.g.)2026-04-29 19:31:50
XCO1-111AleksisMuižnieksVīrieši M19-34 (1992.-2007.dz.g.)2026-04-29 19:17:03
XCO1-110AdriansDureņšGoldingen Cycling AcademyZēni U14 (2012.-2013.dz.g.)2026-04-29 18:43:19
XCO1-109LindaTautereLatvian Cycling GirlsSievietes Master 1+ (<=1992.dz.g.)2026-04-29 14:29:04
XCO1-108ReinisJuršēvičsSK PriekuļiVīrieši M19-34 (1992.-2007.dz.g.)2026-04-29 12:23:30
XCO1-107Simonas GabrieliusBielinisEnergus talentų akademijaZēni U14 (2012.-2013.dz.g.)2026-04-29 10:59:51
XCO1-106AronasMažeikaEnergus talentų akademijaZēni U14 (2012.-2013.dz.g.)2026-04-29 10:59:51
XCO1-105VakarisPerednisEnergus talentų akademijaZēni U16 (2010.-2011.dz.g.)2026-04-29 10:59:51
XCO1-104KiprasDambrauskasEnergus talentų akademijaZēni U14 (2012.-2013.dz.g.)2026-04-29 10:59:51
XCO1-103KarolinaMažeikaitėEnergus talentų akademijaMeitenes U16-U18 (2008.-2011.dz.g.)2026-04-29 10:59:51
XCO1-102EmilėPetrauskaitėBernatonio dviračių akademijaMeitenes U16-U18 (2008.-2011.dz.g.)2026-04-29 10:59:51
XCO1-101TatjanaPetrauskienėEnergus talentų akademijaSievietes Master 1+ (<=1992.dz.g.)2026-04-29 10:59:51
XCO1-100ViktorsBarbarovsDV VELOVīrieši Hobija klase2026-04-29 09:44:51
XCO1-99ArnisPētersonsDTG - MySportVīrieši Elite* (<=2007.dz.g.)2026-04-29 09:35:15
XCO1-98KārlisBaltacisTREK - VELOPROFS.LVVīrieši Elite* (<=2007.dz.g.)2026-04-29 07:38:39
XCO1-97OliversPlociņšDV VELOVīrieši M19-34 (1992.-2007.dz.g.)2026-04-29 06:48:51
XCO1-96EdgarsĀbolsDTG - MysportVīrieši Elite* (<=2007.dz.g.)2026-04-29 06:37:59
XCO1-95MairisEglitisVīrieši M19-34 (1992.-2007.dz.g.)2026-04-28 19:06:00
XCO1-94VitaĻaudamaMTB GrobiņaSievietes Master 1+ (<=1992.dz.g.)2026-04-28 18:59:08
XCO1-93JānisHomkoDako ZiemeļvidzemeZēni U14 (2012.-2013.dz.g.)2026-04-28 18:48:35
XCO1-92DainisHomkoDako ZiemeļvidzemeVīrieši Master 2 (1982.-1986.dz.g.)2026-04-28 18:48:35
XCO1-91RinaldsŠimensMīdītājiVīrieši Master 1 (1987.-1991.dz.g.)2026-04-28 18:48:14
XCO1-90JurisĀboliņšMīdītājiVīrieši Master 2 (1982.-1986.dz.g.)2026-04-28 18:48:14
XCO1-89MartinsMironovsVīrieši M19-34 (1992.-2007.dz.g.)2026-04-28 17:49:32
XCO1-88GediminasŠtarasBernatonio dviračių akademijaZēni U14 (2012.-2013.dz.g.)2026-04-28 17:33:57
XCO1-87VytautasVenckusBernatonio dviračių akademijaZēni U16 (2010.-2011.dz.g.)2026-04-28 17:32:14
XCO1-86RobertsBirkantsNN Sporta klubs/RRSVīrieši M19-34 (1992.-2007.dz.g.)2026-04-28 15:52:58
XCO1-85AdasDobilasBernatonio dviračiu akademijaZēni U14 (2012.-2013.dz.g.)2026-04-28 13:36:25
XCO1-84PovilasKarosasBernatonio Dviraciu AkademijaZēni U14 (2012.-2013.dz.g.)2026-04-28 13:35:04
XCO1-83AugustasBudnikasBernatonio dviračių akademijaZēni U16 (2010.-2011.dz.g.)2026-04-28 12:05:56
XCO1-82ViktorsBaumanisLiVelo / Zelta ZemeVīrieši Master 5+ (<=1971.dz.g.)2026-04-28 10:04:14
XCO1-81DanaAlksneLiVelo / Zelta ZemeSievietes Hobija klase2026-04-28 10:04:14
XCO1-80LīgaActiņaLiVelo / Zelta ZemeSievietes Hobija klase2026-04-28 10:04:14
XCO1-79JānisVītolsVelo klubs SiguldaVīrieši Hobija klase2026-04-28 09:38:50
XCO1-78MihkelArroPorter RacingZēni U18 (2008.-2009.dz.g.)2026-04-28 07:44:18
XCO1-77Amanda ReilijaZariņaFeelFree.lvSievietes Elite/U23/M19-34 (<=2007.dz.g.)2026-04-28 05:44:34
XCO1-76ReinisAvensNN Sporta klubs/RRSVīrieši Master 3 (1977.-1981.dz.g.)2026-04-27 18:49:41
XCO1-75KonstantīnsSmotrovsNN Sporta klubs/RRSVīrieši Elite* (<=2007.dz.g.)2026-04-27 18:49:41
XCO1-74RalfsZaļeskisNN Sporta klubs/RRSZēni U16 (2010.-2011.dz.g.)2026-04-27 18:49:41
XCO1-73EvertsMeijersNN Sporta klubs/RRSZēni U18 (2008.-2009.dz.g.)2026-04-27 18:49:41
XCO1-72AlvilsPētersonsNN Sporta klubs/RRSZēni U18 (2008.-2009.dz.g.)2026-04-27 18:49:41
XCO1-71JokūbasKuklinskasPanevėžio SC, El-eko sport tempasZēni U18 (2008.-2009.dz.g.)2026-04-27 18:17:48
XCO1-70RihardsBondarsRRS/MSĢZēni U16 (2010.-2011.dz.g.)2026-04-27 17:18:43
XCO1-69OskarsBondarsRRSZēni U12 (2014.-2015.dz.g.)2026-04-27 17:14:49
XCO1-68KlāvsRozenbergsSK PriekuļiZēni U12 (2014.-2015.dz.g.)2026-04-27 12:05:36
XCO1-67ReinisRozenbergsSK PriekuļiVīrieši Master 1 (1987.-1991.dz.g.)2026-04-27 12:05:36
XCO1-66RalfsKrūzeBMX ĀdažiZēni U14 (2012.-2013.dz.g.)2026-04-27 09:40:34
XCO1-65KnutsRamiņšRRSZēni U12 (2014.-2015.dz.g.)2026-04-27 09:09:17
XCO1-64MārisKušnersKrimuldas veloVīrieši Hobija klase2026-04-27 08:32:40
XCO1-63MārisKušnersKrimuldas veloVīrieši Hobija klase2026-04-27 08:32:23
XCO1-62Justs UgaUmblejsVelotreniņi.lvZēni U18 (2008.-2009.dz.g.)2026-04-27 08:14:56
XCO1-61MatīssIelejsSKANSTE VIRŠIZēni U18 (2008.-2009.dz.g.)2026-04-27 07:43:29
XCO1-60JānisBrūklisMTB NīcaVīrieši Master 4 (1972.-1976.dz.g.)2026-04-27 07:19:47
XCO1-59NormundsGriestiņšErica SynthsVīrieši Master 2 (1982.-1986.dz.g.)2026-04-27 07:10:08
XCO1-58LaimonasSkabeikisASK ExtempasVīrieši Master 2 (1982.-1986.dz.g.)2026-04-27 06:32:55
XCO1-57UldisFreibergsTalsu novada sporta skolaVīrieši Hobija klase2026-04-27 06:00:03
XCO1-56EmīlsFreibergsTalsu novada sporta skolaZēni U12 (2014.-2015.dz.g.)2026-04-27 06:00:03
XCO1-55OliversVaisūnsRRSZēni U16 (2010.-2011.dz.g.)2026-04-27 05:30:44
XCO1-54OliversŠikaVeloLifestyle/SmiltenesBJSSZēni U16 (2010.-2011.dz.g.)2026-04-26 18:39:53
XCO1-53RūdolfsZetmanisKandavaZēni U14 (2012.-2013.dz.g.)2026-04-26 16:50:41
XCO1-52IvarsDrulleVīrieši Master 4 (1972.-1976.dz.g.)2026-04-26 15:34:38
XCO1-51ArtisMežraupsDako ZiemeļvidzemeVīrieši Elite* (<=2007.dz.g.)2026-04-26 08:39:22
XCO1-50KristiānsFeldmanisVīrieši M19-34 (1992.-2007.dz.g.)2026-04-26 08:32:00
XCO1-49DainisGulbisDV VELOVīrieši Master 5+ (<=1971.dz.g.)2026-04-26 06:53:07
XCO1-48RenārsZaļeskisNN Sporta klubs/RRSVīrieši Master 3 (1977.-1981.dz.g.)2026-04-26 06:43:30
XCO1-47RobertsLūsisTalsu novada sporta skolaZēni U12 (2014.-2015.dz.g.)2026-04-25 19:14:21
XCO1-46KristiānsFeldmanisVīrieši M19-34 (1992.-2007.dz.g.)2026-04-25 09:43:14
XCO1-45NikitaKačanovskisVīrieši M19-34 (1992.-2007.dz.g.)2026-04-25 08:27:54
XCO1-44LeldeTilkoRiteņvasaraSievietes Hobija klase2026-04-24 13:29:48
XCO1-43MārcisTilkoĀgenskalna ŠmuļiVīrieši Hobija klase2026-04-24 13:25:35
XCO1-42AIVARSDĀRZNIEKSTREK - VELOPROFS.LVVīrieši Master 2 (1982.-1986.dz.g.)2026-04-24 12:20:38
XCO1-41KārlisPūceSaulkrasti veloZēni U12 (2014.-2015.dz.g.)2026-04-24 12:04:01
XCO1-40ElīzaPūceSaulkrasti veloMeitenes U14 (2012.-2013.dz.g.)2026-04-24 12:04:01
XCO1-39JānisMičulisINTERVALS.LV / ERST FinanceVīrieši Master 3 (1977.-1981.dz.g.)2026-04-23 11:50:10
XCO1-38LaumaLangeLiVelo / Zelta ZemeMeitenes U16-U18 (2008.-2011.dz.g.)2026-04-23 08:30:21
XCO1-37LaurisCelitānsGarām ejot MTB TeamVīrieši Master 3 (1977.-1981.dz.g.)2026-04-22 10:33:16
XCO1-36SamantaCelitāneGarām ejot MTB TeamMeitenes U16-U18 (2008.-2011.dz.g.)2026-04-22 10:33:16
XCO1-35MārtiņšIceGarām ejot MTB TeamZēni U16 (2010.-2011.dz.g.)2026-04-22 10:33:16
XCO1-34KristersCelitānsGarām ejot MTB TeamVīrieši Elite* (<=2007.dz.g.)2026-04-22 10:33:16
XCO1-33ĀdoflsŽunnaTREK - VELOPROFS.LVVīrieši M19-34 (1992.-2007.dz.g.)2026-04-22 05:15:55
XCO1-32Arvids ŠteinbergsŠteinbergsWiljer/OzoVīrieši Master 5+ (<=1971.dz.g.)2026-04-21 06:06:53
XCO1-31ValtersJonassDTG - MysportZēni U18 (2008.-2009.dz.g.)2026-04-20 18:08:13
XCO1-30ErnestsErviksSpēka DruvaZēni U12 (2014.-2015.dz.g.)2026-04-20 13:15:36
XCO1-29TomsErviksSpēka DruvaVīrieši Hobija klase2026-04-20 13:15:36
XCO1-28IvoLevānsKS Sporta klubsVīrieši Master 3 (1977.-1981.dz.g.)2026-04-20 08:45:55
XCO1-27ViljamsGervisĶEKAVAS NSSZēni U16 (2010.-2011.dz.g.)2026-04-18 20:00:39
XCO1-26FricisOzoliņšSiguldaZēni U16 (2010.-2011.dz.g.)2026-04-16 19:57:19
XCO1-25AnsisMežulisJūrmalaVīrieši Master 5+ (<=1971.dz.g.)2026-04-16 18:36:55
XCO1-22TīnaTeivišaVeloLifestyle/SmiltenesBJSSMeitenes U14 (2012.-2013.dz.g.)2026-04-16 06:50:25
XCO1-21JānisTeivišsVelo klubs SiguldaVīrieši Master 2 (1982.-1986.dz.g.)2026-04-16 06:47:46
XCO1-20MartinsPurinsDAKO-ZiemeļvidzemeVīrieši Master 3 (1977.-1981.dz.g.)2026-04-15 08:25:25
XCO1-19EdijsSilnieksMTB GROBIŅAVīrieši M19-34 (1992.-2007.dz.g.)2026-04-15 07:46:04
XCO1-18tomsmarkssVīrieši Elite* (<=2007.dz.g.)2026-04-15 07:10:59
XCO1-17PatriksPeslaksKS sporta klubsZēni U12 (2014.-2015.dz.g.)2026-04-15 05:42:02
XCO1-16EvelīnaĻaudamaMTB GrobiņaMeitenes U12 (2014.-2015.dz.g.)2026-04-14 21:04:39
XCO1-15AndisMiončinskisINTERVALS.LVVīrieši Master 3 (1977.-1981.dz.g.)2026-04-14 19:13:18
XCO1-14KatrīnaHansoneRRSMeitenes U14 (2012.-2013.dz.g.)2026-04-14 18:47:28
XCO1-13ArtūrsGabaliņšVelo Klubs SiguldaVīrieši Master 1 (1987.-1991.dz.g.)2026-04-14 18:33:17
XCO1-12Guntis LeimanisLeimanisVīrieši M19-34 (1992.-2007.dz.g.)2026-04-14 18:21:09
XCO1-11KristapsCelmsLrfVīrieši Elite* (<=2007.dz.g.)2026-04-14 18:07:28
XCO1-10ZaneCelmaLrfSievietes Master 1+ (<=1992.dz.g.)2026-04-14 18:07:28
XCO1-9SalvisSkaistaisRiteņvasaraVīrieši Hobija klase2026-04-14 17:43:29
XCO1-8RūdolfsGrušsVelo SaldusVīrieši M19-34 (1992.-2007.dz.g.)2026-04-14 17:42:44
XCO1-7RonaldsRītiņšVelo SaldusVīrieši Elite* (<=2007.dz.g.)2026-04-14 17:42:44
XCO1-6RaivisIndēvicsVelo SaldusVīrieši Master 1 (1987.-1991.dz.g.)2026-04-14 17:42:44